sensor_id;sensor_type;location;lat;lon;timestamp;pressure;altitude;pressure_sealevel;temperature;humidity
61898;BME280;47850;50.274;18.908;2023-02-23T00:02:07;98161.14;;;-0.69;88.84
61898;BME280;47850;50.274;18.908;2023-02-23T00:04:35;98157.77;;;-0.72;88.88
61898;BME280;47850;50.274;18.908;2023-02-23T00:07:04;98154.91;;;-0.74;88.83
61898;BME280;47850;50.274;18.908;2023-02-23T00:09:36;98158.08;;;-0.77;89.14
61898;BME280;47850;50.274;18.908;2023-02-23T00:12:05;98154.99;;;-0.79;89.27
61898;BME280;47850;50.274;18.908;2023-02-23T00:14:37;98157.32;;;-0.81;89.18
61898;BME280;47850;50.274;18.908;2023-02-23T00:17:06;98161.67;;;-0.84;89.20
61898;BME280;47850;50.274;18.908;2023-02-23T00:19:41;98154.85;;;-0.88;89.38
61898;BME280;47850;50.274;18.908;2023-02-23T00:22:10;98151.14;;;-0.91;89.45
61898;BME280;47850;50.274;18.908;2023-02-23T00:24:39;98152.66;;;-0.92;88.98
61898;BME280;47850;50.274;18.908;2023-02-23T00:27:09;98151.39;;;-0.94;89.11
61898;BME280;47850;50.274;18.908;2023-02-23T00:29:39;98155.16;;;-0.96;89.08
61898;BME280;47850;50.274;18.908;2023-02-23T00:32:06;98150.22;;;-0.97;88.92
61898;BME280;47850;50.274;18.908;2023-02-23T00:34:35;98152.19;;;-0.99;88.71
61898;BME280;47850;50.274;18.908;2023-02-23T00:37:03;98150.67;;;-1.00;88.75
61898;BME280;47850;50.274;18.908;2023-02-23T00:39:31;98149.31;;;-1.01;88.67
61898;BME280;47850;50.274;18.908;2023-02-23T00:41:59;98151.12;;;-1.02;88.59
61898;BME280;47850;50.274;18.908;2023-02-23T00:44:30;98151.52;;;-1.03;88.70
61898;BME280;47850;50.274;18.908;2023-02-23T00:47:00;98153.73;;;-1.05;88.69
61898;BME280;47850;50.274;18.908;2023-02-23T00:49:28;98153.08;;;-1.07;88.24
61898;BME280;47850;50.274;18.908;2023-02-23T00:51:56;98150.66;;;-1.10;87.87
61898;BME280;47850;50.274;18.908;2023-02-23T00:54:25;98150.06;;;-1.12;87.65
61898;BME280;47850;50.274;18.908;2023-02-23T00:56:52;98150.25;;;-1.13;87.66
61898;BME280;47850;50.274;18.908;2023-02-23T00:59:20;98147.00;;;-1.16;87.64
61898;BME280;47850;50.274;18.908;2023-02-23T01:01:48;98147.49;;;-1.18;87.49
61898;BME280;47850;50.274;18.908;2023-02-23T01:04:16;98145.77;;;-1.19;87.35
61898;BME280;47850;50.274;18.908;2023-02-23T01:06:44;98142.75;;;-1.20;87.26
61898;BME280;47850;50.274;18.908;2023-02-23T01:09:15;98143.64;;;-1.21;87.17
61898;BME280;47850;50.274;18.908;2023-02-23T01:11:55;98146.40;;;-1.23;87.06
61898;BME280;47850;50.274;18.908;2023-02-23T01:14:23;98144.91;;;-1.25;86.88
61898;BME280;47850;50.274;18.908;2023-02-23T01:16:51;98144.34;;;-1.28;86.71
61898;BME280;47850;50.274;18.908;2023-02-23T01:19:19;98143.50;;;-1.30;86.64
61898;BME280;47850;50.274;18.908;2023-02-23T01:21:47;98143.31;;;-1.32;86.64
61898;BME280;47850;50.274;18.908;2023-02-23T01:24:15;98135.74;;;-1.33;86.64
61898;BME280;47850;50.274;18.908;2023-02-23T01:26:44;98139.05;;;-1.34;86.41
61898;BME280;47850;50.274;18.908;2023-02-23T01:29:15;98134.37;;;-1.35;86.17
61898;BME280;47850;50.274;18.908;2023-02-23T01:31:45;98134.12;;;-1.38;86.15
61898;BME280;47850;50.274;18.908;2023-02-23T01:34:14;98130.88;;;-1.40;86.34
61898;BME280;47850;50.274;18.908;2023-02-23T01:36:43;98127.20;;;-1.41;86.33
61898;BME280;47850;50.274;18.908;2023-02-23T01:39:14;98128.27;;;-1.42;86.27
61898;BME280;47850;50.274;18.908;2023-02-23T01:41:43;98129.58;;;-1.44;86.33
61898;BME280;47850;50.274;18.908;2023-02-23T01:46:41;98122.92;;;-1.49;86.37
61898;BME280;47850;50.274;18.908;2023-02-23T01:49:17;98118.14;;;-1.50;86.40
61898;BME280;47850;50.274;18.908;2023-02-23T01:51:52;98112.70;;;-1.52;86.35
61898;BME280;47850;50.274;18.908;2023-02-23T01:54:25;98105.29;;;-1.54;86.32
61898;BME280;47850;50.274;18.908;2023-02-23T01:56:57;98101.11;;;-1.57;86.31
61898;BME280;47850;50.274;18.908;2023-02-23T01:59:39;98100.98;;;-1.58;86.34
61898;BME280;47850;50.274;18.908;2023-02-23T02:02:08;98102.23;;;-1.61;86.37
61898;BME280;47850;50.274;18.908;2023-02-23T02:04:39;98098.21;;;-1.62;86.44
61898;BME280;47850;50.274;18.908;2023-02-23T02:07:17;98100.77;;;-1.63;86.41
61898;BME280;47850;50.274;18.908;2023-02-23T02:09:46;98093.92;;;-1.65;86.24
61898;BME280;47850;50.274;18.908;2023-02-23T02:12:34;98088.98;;;-1.67;86.31
61898;BME280;47850;50.274;18.908;2023-02-23T02:15:04;98091.14;;;-1.69;86.30
61898;BME280;47850;50.274;18.908;2023-02-23T02:17:39;98085.82;;;-1.70;86.22
61898;BME280;47850;50.274;18.908;2023-02-23T02:23:45;98090.85;;;-1.72;86.50
61898;BME280;47850;50.274;18.908;2023-02-23T02:31:37;98083.39;;;-1.75;86.51
61898;BME280;47850;50.274;18.908;2023-02-23T02:37:35;98085.74;;;-1.78;86.34
61898;BME280;47850;50.274;18.908;2023-02-23T02:49:18;98084.05;;;-1.85;86.40
61898;BME280;47850;50.274;18.908;2023-02-23T02:51:54;98085.25;;;-1.87;86.27
61898;BME280;47850;50.274;18.908;2023-02-23T02:54:37;98077.89;;;-1.88;86.31
61898;BME280;47850;50.274;18.908;2023-02-23T02:57:06;98078.30;;;-1.88;86.31
61898;BME280;47850;50.274;18.908;2023-02-23T02:59:43;98076.63;;;-1.89;86.55
61898;BME280;47850;50.274;18.908;2023-02-23T03:02:32;98077.41;;;-1.90;86.54
61898;BME280;47850;50.274;18.908;2023-02-23T03:05:22;98075.64;;;-1.90;86.68
61898;BME280;47850;50.274;18.908;2023-02-23T03:08:33;98074.70;;;-1.91;86.51
61898;BME280;47850;50.274;18.908;2023-02-23T03:11:26;98077.73;;;-1.93;86.32
61898;BME280;47850;50.274;18.908;2023-02-23T03:17:29;98075.45;;;-1.94;86.50
61898;BME280;47850;50.274;18.908;2023-02-23T03:32:22;98072.83;;;-1.98;86.78
61898;BME280;47850;50.274;18.908;2023-02-23T03:36:01;98073.20;;;-1.98;86.96
61898;BME280;47850;50.274;18.908;2023-02-23T03:39:18;98075.70;;;-1.98;86.78
61898;BME280;47850;50.274;18.908;2023-02-23T03:42:12;98071.81;;;-1.98;87.07
61898;BME280;47850;50.274;18.908;2023-02-23T03:45:05;98078.38;;;-1.99;87.01
61898;BME280;47850;50.274;18.908;2023-02-23T03:47:54;98074.18;;;-1.99;87.13
61898;BME280;47850;50.274;18.908;2023-02-23T03:50:57;98078.67;;;-2.00;87.07
61898;BME280;47850;50.274;18.908;2023-02-23T03:53:54;98073.73;;;-2.01;87.23
61898;BME280;47850;50.274;18.908;2023-02-23T03:56:45;98080.61;;;-2.02;87.32
61898;BME280;47850;50.274;18.908;2023-02-23T03:59:38;98081.52;;;-2.02;87.22
61898;BME280;47850;50.274;18.908;2023-02-23T04:02:26;98082.30;;;-2.03;87.12
61898;BME280;47850;50.274;18.908;2023-02-23T04:05:18;98081.10;;;-2.05;87.02
61898;BME280;47850;50.274;18.908;2023-02-23T04:08:08;98079.80;;;-2.05;87.04
61898;BME280;47850;50.274;18.908;2023-02-23T04:11:05;98079.64;;;-2.08;87.13
61898;BME280;47850;50.274;18.908;2023-02-23T04:13:59;98077.21;;;-2.10;87.14
61898;BME280;47850;50.274;18.908;2023-02-23T04:16:29;98076.34;;;-2.11;87.32
61898;BME280;47850;50.274;18.908;2023-02-23T04:18:58;98075.79;;;-2.11;87.44
61898;BME280;47850;50.274;18.908;2023-02-23T04:21:26;98074.45;;;-2.12;87.52
61898;BME280;47850;50.274;18.908;2023-02-23T04:23:54;98072.10;;;-2.12;87.56
61898;BME280;47850;50.274;18.908;2023-02-23T04:26:21;98070.13;;;-2.12;87.75
61898;BME280;47850;50.274;18.908;2023-02-23T04:28:49;98068.30;;;-2.12;87.69
61898;BME280;47850;50.274;18.908;2023-02-23T04:31:17;98069.59;;;-2.12;87.84
61898;BME280;47850;50.274;18.908;2023-02-23T04:33:45;98069.64;;;-2.12;88.18
61898;BME280;47850;50.274;18.908;2023-02-23T04:36:12;98064.62;;;-2.12;88.01
61898;BME280;47850;50.274;18.908;2023-02-23T04:38:40;98063.83;;;-2.11;88.25
61898;BME280;47850;50.274;18.908;2023-02-23T04:41:08;98061.80;;;-2.11;88.25
61898;BME280;47850;50.274;18.908;2023-02-23T04:43:36;98058.27;;;-2.11;88.30
61898;BME280;47850;50.274;18.908;2023-02-23T04:46:04;98059.98;;;-2.10;88.20
61898;BME280;47850;50.274;18.908;2023-02-23T04:48:31;98061.81;;;-2.11;88.33
61898;BME280;47850;50.274;18.908;2023-02-23T04:50:59;98056.67;;;-2.11;88.33
61898;BME280;47850;50.274;18.908;2023-02-23T04:53:27;98059.11;;;-2.12;88.42
61898;BME280;47850;50.274;18.908;2023-02-23T04:55:55;98059.76;;;-2.11;88.34
61898;BME280;47850;50.274;18.908;2023-02-23T04:58:23;98058.00;;;-2.11;88.36
61898;BME280;47850;50.274;18.908;2023-02-23T05:00:50;98058.86;;;-2.11;88.65
61898;BME280;47850;50.274;18.908;2023-02-23T05:03:18;98061.58;;;-2.11;88.85
61898;BME280;47850;50.274;18.908;2023-02-23T05:05:46;98057.89;;;-2.12;88.76
61898;BME280;47850;50.274;18.908;2023-02-23T05:08:14;98058.70;;;-2.11;88.79
61898;BME280;47850;50.274;18.908;2023-02-23T05:10:41;98054.69;;;-2.12;88.75
61898;BME280;47850;50.274;18.908;2023-02-23T05:13:09;98058.31;;;-2.12;88.71
61898;BME280;47850;50.274;18.908;2023-02-23T05:15:37;98062.72;;;-2.13;88.64
61898;BME280;47850;50.274;18.908;2023-02-23T05:18:06;98061.21;;;-2.14;88.68
61898;BME280;47850;50.274;18.908;2023-02-23T05:20:34;98060.25;;;-2.14;88.67
61898;BME280;47850;50.274;18.908;2023-02-23T05:23:02;98059.05;;;-2.15;88.72
61898;BME280;47850;50.274;18.908;2023-02-23T05:25:30;98061.02;;;-2.16;88.84
61898;BME280;47850;50.274;18.908;2023-02-23T05:27:58;98063.74;;;-2.16;88.91
61898;BME280;47850;50.274;18.908;2023-02-23T05:30:26;98062.17;;;-2.18;88.71
61898;BME280;47850;50.274;18.908;2023-02-23T05:32:53;98064.43;;;-2.17;88.61
61898;BME280;47850;50.274;18.908;2023-02-23T05:35:21;98061.27;;;-2.17;88.78
61898;BME280;47850;50.274;18.908;2023-02-23T05:37:49;98062.45;;;-2.17;88.95
61898;BME280;47850;50.274;18.908;2023-02-23T05:40:17;98063.33;;;-2.16;88.87
61898;BME280;47850;50.274;18.908;2023-02-23T05:42:45;98063.43;;;-2.15;88.94
61898;BME280;47850;50.274;18.908;2023-02-23T05:45:12;98061.04;;;-2.16;89.03
61898;BME280;47850;50.274;18.908;2023-02-23T05:47:41;98060.60;;;-2.15;88.81
61898;BME280;47850;50.274;18.908;2023-02-23T05:50:09;98063.81;;;-2.14;88.91
61898;BME280;47850;50.274;18.908;2023-02-23T05:52:39;98063.91;;;-2.13;88.95
61898;BME280;47850;50.274;18.908;2023-02-23T05:55:09;98064.36;;;-2.11;89.23
61898;BME280;47850;50.274;18.908;2023-02-23T05:57:41;98064.84;;;-2.08;88.99
61898;BME280;47850;50.274;18.908;2023-02-23T06:00:11;98068.29;;;-2.06;88.99
61898;BME280;47850;50.274;18.908;2023-02-23T06:02:40;98066.95;;;-2.03;89.00
61898;BME280;47850;50.274;18.908;2023-02-23T06:05:12;98070.55;;;-2.00;89.07
61898;BME280;47850;50.274;18.908;2023-02-23T06:07:40;98069.39;;;-1.96;88.99
61898;BME280;47850;50.274;18.908;2023-02-23T06:10:08;98068.43;;;-1.92;88.95
61898;BME280;47850;50.274;18.908;2023-02-23T06:12:36;98065.95;;;-1.88;89.22
61898;BME280;47850;50.274;18.908;2023-02-23T06:15:05;98069.89;;;-1.83;89.15
61898;BME280;47850;50.274;18.908;2023-02-23T06:17:34;98072.80;;;-1.78;89.24
61898;BME280;47850;50.274;18.908;2023-02-23T06:20:03;98071.61;;;-1.72;89.13
61898;BME280;47850;50.274;18.908;2023-02-23T06:22:31;98072.91;;;-1.67;88.86
61898;BME280;47850;50.274;18.908;2023-02-23T06:24:59;98076.02;;;-1.62;88.87
61898;BME280;47850;50.274;18.908;2023-02-23T06:27:29;98081.64;;;-1.57;88.62
61898;BME280;47850;50.274;18.908;2023-02-23T06:29:57;98082.55;;;-1.54;88.29
61898;BME280;47850;50.274;18.908;2023-02-23T06:32:24;98083.33;;;-1.49;88.03
61898;BME280;47850;50.274;18.908;2023-02-23T06:34:53;98081.85;;;-1.45;87.88
61898;BME280;47850;50.274;18.908;2023-02-23T06:37:21;98080.23;;;-1.39;87.68
61898;BME280;47850;50.274;18.908;2023-02-23T06:39:49;98082.57;;;-1.33;87.54
61898;BME280;47850;50.274;18.908;2023-02-23T06:42:17;98081.27;;;-1.27;87.36
61898;BME280;47850;50.274;18.908;2023-02-23T06:44:44;98082.08;;;-1.20;87.36
61898;BME280;47850;50.274;18.908;2023-02-23T06:47:12;98089.27;;;-1.11;87.32
61898;BME280;47850;50.274;18.908;2023-02-23T06:49:40;98085.16;;;-1.02;87.05
61898;BME280;47850;50.274;18.908;2023-02-23T06:52:08;98087.55;;;-0.95;86.70
61898;BME280;47850;50.274;18.908;2023-02-23T06:54:36;98088.20;;;-0.88;86.56
61898;BME280;47850;50.274;18.908;2023-02-23T06:57:09;98081.89;;;-0.80;86.28
61898;BME280;47850;50.274;18.908;2023-02-23T06:59:37;98084.85;;;-0.70;86.15
61898;BME280;47850;50.274;18.908;2023-02-23T07:02:06;98087.47;;;-0.62;85.97
61898;BME280;47850;50.274;18.908;2023-02-23T07:04:33;98087.37;;;-0.54;85.70
61898;BME280;47850;50.274;18.908;2023-02-23T07:07:01;98087.10;;;-0.44;85.67
61898;BME280;47850;50.274;18.908;2023-02-23T07:09:30;98089.11;;;-0.37;85.04
61898;BME280;47850;50.274;18.908;2023-02-23T07:11:58;98089.35;;;-0.30;84.67
61898;BME280;47850;50.274;18.908;2023-02-23T07:14:26;98088.24;;;-0.24;84.55
61898;BME280;47850;50.274;18.908;2023-02-23T07:16:54;98087.66;;;-0.14;84.28
61898;BME280;47850;50.274;18.908;2023-02-23T07:19:22;98088.01;;;-0.07;83.95
61898;BME280;47850;50.274;18.908;2023-02-23T07:21:50;98082.08;;;0.01;83.79
61898;BME280;47850;50.274;18.908;2023-02-23T07:24:18;98086.42;;;0.12;83.91
61898;BME280;47850;50.274;18.908;2023-02-23T07:26:46;98090.11;;;0.21;83.46
61898;BME280;47850;50.274;18.908;2023-02-23T07:29:15;98087.57;;;0.31;83.45
61898;BME280;47850;50.274;18.908;2023-02-23T07:31:43;98085.40;;;0.40;83.27
61898;BME280;47850;50.274;18.908;2023-02-23T07:34:11;98077.73;;;0.46;82.69
61898;BME280;47850;50.274;18.908;2023-02-23T07:36:39;98085.14;;;0.55;82.31
61898;BME280;47850;50.274;18.908;2023-02-23T07:39:07;98083.20;;;0.60;82.00
61898;BME280;47850;50.274;18.908;2023-02-23T07:41:35;98085.04;;;0.67;81.85
61898;BME280;47850;50.274;18.908;2023-02-23T07:44:03;98079.83;;;0.74;81.66
61898;BME280;47850;50.274;18.908;2023-02-23T07:46:31;98082.86;;;0.79;81.40
61898;BME280;47850;50.274;18.908;2023-02-23T07:48:58;98083.12;;;0.85;81.00
61898;BME280;47850;50.274;18.908;2023-02-23T07:51:26;98078.94;;;0.94;81.15
61898;BME280;47850;50.274;18.908;2023-02-23T07:53:54;98076.31;;;1.03;80.84
61898;BME280;47850;50.274;18.908;2023-02-23T07:56:22;98072.86;;;1.09;80.37
61898;BME280;47850;50.274;18.908;2023-02-23T07:58:50;98071.39;;;1.16;80.32
61898;BME280;47850;50.274;18.908;2023-02-23T08:01:18;98062.63;;;1.24;80.23
61898;BME280;47850;50.274;18.908;2023-02-23T08:03:46;98065.37;;;1.35;80.20
61898;BME280;47850;50.274;18.908;2023-02-23T08:06:17;98064.71;;;1.48;79.92
61898;BME280;47850;50.274;18.908;2023-02-23T08:08:46;98067.55;;;1.55;79.39
61898;BME280;47850;50.274;18.908;2023-02-23T08:11:14;98068.23;;;1.64;79.14
61898;BME280;47850;50.274;18.908;2023-02-23T08:13:42;98068.58;;;1.71;78.64
61898;BME280;47850;50.274;18.908;2023-02-23T08:16:10;98068.06;;;1.78;78.24
61898;BME280;47850;50.274;18.908;2023-02-23T08:18:39;98069.52;;;1.85;78.38
61898;BME280;47850;50.274;18.908;2023-02-23T08:21:06;98062.52;;;1.95;78.36
61898;BME280;47850;50.274;18.908;2023-02-23T08:23:34;98061.20;;;2.08;78.26
61898;BME280;47850;50.274;18.908;2023-02-23T08:26:03;98063.14;;;2.19;77.38
61898;BME280;47850;50.274;18.908;2023-02-23T08:28:30;98062.95;;;2.25;77.10
61898;BME280;47850;50.274;18.908;2023-02-23T08:30:58;98067.35;;;2.32;76.87
61898;BME280;47850;50.274;18.908;2023-02-23T08:33:26;98063.23;;;2.39;76.78
61898;BME280;47850;50.274;18.908;2023-02-23T08:35:57;98059.72;;;2.48;76.88
61898;BME280;47850;50.274;18.908;2023-02-23T08:38:26;98067.31;;;2.58;76.69
61898;BME280;47850;50.274;18.908;2023-02-23T08:40:53;98065.55;;;2.68;76.37
61898;BME280;47850;50.274;18.908;2023-02-23T08:43:21;98065.33;;;2.73;75.85
61898;BME280;47850;50.274;18.908;2023-02-23T08:45:49;98068.65;;;2.80;76.12
61898;BME280;47850;50.274;18.908;2023-02-23T08:48:16;98067.56;;;2.85;75.25
61898;BME280;47850;50.274;18.908;2023-02-23T08:50:44;98066.75;;;2.89;75.19
61898;BME280;47850;50.274;18.908;2023-02-23T08:53:16;98064.86;;;2.94;74.90
61898;BME280;47850;50.274;18.908;2023-02-23T08:55:45;98062.39;;;2.96;74.67
61898;BME280;47850;50.274;18.908;2023-02-23T08:58:13;98061.13;;;3.05;75.32
61898;BME280;47850;50.274;18.908;2023-02-23T09:00:40;98058.51;;;3.19;75.52
61898;BME280;47850;50.274;18.908;2023-02-23T09:03:08;98053.95;;;3.32;74.75
61898;BME280;47850;50.274;18.908;2023-02-23T09:05:36;98052.47;;;3.40;74.48
61898;BME280;47850;50.274;18.908;2023-02-23T09:08:05;98048.23;;;3.48;74.27
61898;BME280;47850;50.274;18.908;2023-02-23T09:10:33;98043.72;;;3.59;74.42
61898;BME280;47850;50.274;18.908;2023-02-23T09:13:02;98045.96;;;3.72;74.18
61898;BME280;47850;50.274;18.908;2023-02-23T09:15:30;98047.81;;;3.82;73.80
61898;BME280;47850;50.274;18.908;2023-02-23T09:18:01;98051.26;;;3.92;73.57
61898;BME280;47850;50.274;18.908;2023-02-23T09:20:29;98058.86;;;4.03;72.82
61898;BME280;47850;50.274;18.908;2023-02-23T09:22:57;98063.00;;;4.06;72.23
61898;BME280;47850;50.274;18.908;2023-02-23T09:25:25;98062.34;;;4.05;71.72
61898;BME280;47850;50.274;18.908;2023-02-23T09:27:55;98067.25;;;4.10;71.98
61898;BME280;47850;50.274;18.908;2023-02-23T09:30:24;98066.27;;;4.19;71.87
61898;BME280;47850;50.274;18.908;2023-02-23T09:32:54;98069.75;;;4.23;70.76
61898;BME280;47850;50.274;18.908;2023-02-23T09:35:23;98064.71;;;4.25;70.67
61898;BME280;47850;50.274;18.908;2023-02-23T09:37:53;98067.97;;;4.30;70.73
61898;BME280;47850;50.274;18.908;2023-02-23T09:40:25;98063.89;;;4.42;71.10
61898;BME280;47850;50.274;18.908;2023-02-23T09:45:39;98054.04;;;4.78;70.65
61898;BME280;47850;50.274;18.908;2023-02-23T09:50:39;98053.65;;;5.08;69.44
61898;BME280;47850;50.274;18.908;2023-02-23T09:53:38;98052.71;;;5.15;68.77
61898;BME280;47850;50.274;18.908;2023-02-23T09:56:12;98049.92;;;5.24;68.88
61898;BME280;47850;50.274;18.908;2023-02-23T09:58:42;98051.12;;;5.43;69.15
61898;BME280;47850;50.274;18.908;2023-02-23T10:01:40;98052.84;;;5.62;68.43
61898;BME280;47850;50.274;18.908;2023-02-23T10:04:30;98056.27;;;5.83;67.92
61898;BME280;47850;50.274;18.908;2023-02-23T10:07:05;98058.12;;;6.03;67.46
61898;BME280;47850;50.274;18.908;2023-02-23T10:12:33;98065.65;;;6.18;66.60
61898;BME280;47850;50.274;18.908;2023-02-23T10:21:38;98063.13;;;6.73;65.12
61898;BME280;47850;50.274;18.908;2023-02-23T10:23:56;98052.77;;;6.87;65.13
61898;BME280;47850;50.274;18.908;2023-02-23T10:26:32;98052.05;;;7.06;64.40
61898;BME280;47850;50.274;18.908;2023-02-23T10:29:10;98055.79;;;7.18;63.76
61898;BME280;47850;50.274;18.908;2023-02-23T10:31:48;98056.04;;;7.25;63.00
61898;BME280;47850;50.274;18.908;2023-02-23T10:34:17;98053.79;;;7.24;62.42
61898;BME280;47850;50.274;18.908;2023-02-23T10:39:25;98050.00;;;7.27;62.54
61898;BME280;47850;50.274;18.908;2023-02-23T10:41:54;98047.85;;;7.34;62.38
61898;BME280;47850;50.274;18.908;2023-02-23T10:44:24;98042.33;;;7.45;62.27
61898;BME280;47850;50.274;18.908;2023-02-23T10:46:57;98037.29;;;7.61;62.17
61898;BME280;47850;50.274;18.908;2023-02-23T10:49:38;98031.41;;;7.79;62.22
61898;BME280;47850;50.274;18.908;2023-02-23T10:52:11;98025.40;;;7.99;61.64
61898;BME280;47850;50.274;18.908;2023-02-23T10:54:46;98023.64;;;8.20;61.54
61898;BME280;47850;50.274;18.908;2023-02-23T10:57:40;98020.20;;;8.36;60.70
61898;BME280;47850;50.274;18.908;2023-02-23T11:02:43;98017.46;;;8.65;61.53
61898;BME280;47850;50.274;18.908;2023-02-23T11:10:40;98004.81;;;8.83;61.36
61898;BME280;47850;50.274;18.908;2023-02-23T11:13:24;98003.05;;;8.88;61.20
61898;BME280;47850;50.274;18.908;2023-02-23T11:16:01;97999.64;;;8.86;60.10
61898;BME280;47850;50.274;18.908;2023-02-23T11:18:32;97998.35;;;8.82;60.35
61898;BME280;47850;50.274;18.908;2023-02-23T11:21:00;97994.73;;;8.85;60.42
61898;BME280;47850;50.274;18.908;2023-02-23T11:23:33;97997.30;;;8.84;59.80
61898;BME280;47850;50.274;18.908;2023-02-23T11:26:05;97992.90;;;8.86;60.51
61898;BME280;47850;50.274;18.908;2023-02-23T11:28:44;97991.30;;;8.93;60.43
61898;BME280;47850;50.274;18.908;2023-02-23T11:31:14;97987.05;;;8.98;60.57
61898;BME280;47850;50.274;18.908;2023-02-23T11:33:45;97984.63;;;8.98;59.42
61898;BME280;47850;50.274;18.908;2023-02-23T11:39:03;97981.90;;;8.90;59.68
61898;BME280;47850;50.274;18.908;2023-02-23T11:41:32;97979.33;;;8.86;59.32
61898;BME280;47850;50.274;18.908;2023-02-23T11:44:03;97978.11;;;8.80;59.50
61898;BME280;47850;50.274;18.908;2023-02-23T11:46:35;97972.52;;;8.83;60.48
61898;BME280;47850;50.274;18.908;2023-02-23T11:49:05;97973.23;;;8.94;60.32
61898;BME280;47850;50.274;18.908;2023-02-23T11:51:40;97973.29;;;9.03;60.34
61898;BME280;47850;50.274;18.908;2023-02-23T11:54:22;97974.46;;;9.15;60.08
61898;BME280;47850;50.274;18.908;2023-02-23T11:56:52;97969.32;;;9.21;59.15
61898;BME280;47850;50.274;18.908;2023-02-23T11:59:31;97968.87;;;9.20;59.16
61898;BME280;47850;50.274;18.908;2023-02-23T12:02:23;97965.49;;;9.26;59.26
61898;BME280;47850;50.274;18.908;2023-02-23T12:05:21;97967.13;;;9.37;59.24
61898;BME280;47850;50.274;18.908;2023-02-23T12:08:16;97961.42;;;9.47;59.22
61898;BME280;47850;50.274;18.908;2023-02-23T12:10:50;97959.92;;;9.58;58.65
61898;BME280;47850;50.274;18.908;2023-02-23T12:13:37;97956.52;;;9.67;58.90
61898;BME280;47850;50.274;18.908;2023-02-23T12:16:17;97952.27;;;9.80;58.70
61898;BME280;47850;50.274;18.908;2023-02-23T12:18:53;97953.46;;;9.89;58.18
61898;BME280;47850;50.274;18.908;2023-02-23T12:21:33;97949.45;;;9.94;57.98
61898;BME280;47850;50.274;18.908;2023-02-23T12:26:47;97943.82;;;9.75;57.42
61898;BME280;47850;50.274;18.908;2023-02-23T12:29:19;97940.73;;;9.70;57.48
61898;BME280;47850;50.274;18.908;2023-02-23T12:32:20;97935.86;;;9.63;57.81
61898;BME280;47850;50.274;18.908;2023-02-23T12:34:50;97931.60;;;9.65;58.14
61898;BME280;47850;50.274;18.908;2023-02-23T12:37:33;97927.83;;;9.72;58.31
61898;BME280;47850;50.274;18.908;2023-02-23T12:40:15;97923.37;;;9.81;58.16
61898;BME280;47850;50.274;18.908;2023-02-23T12:48:11;97913.54;;;9.82;57.94
61898;BME280;47850;50.274;18.908;2023-02-23T12:50:49;97911.95;;;9.86;58.06
61898;BME280;47850;50.274;18.908;2023-02-23T12:53:30;97908.25;;;9.93;58.21
61898;BME280;47850;50.274;18.908;2023-02-23T13:02:15;97897.04;;;9.94;58.29
61898;BME280;47850;50.274;18.908;2023-02-23T13:08:13;97885.17;;;10.20;57.65
61898;BME280;47850;50.274;18.908;2023-02-23T13:10:49;97884.13;;;10.36;57.37
61898;BME280;47850;50.274;18.908;2023-02-23T13:13:39;97884.77;;;10.48;56.84
61898;BME280;47850;50.274;18.908;2023-02-23T13:18:46;97884.03;;;10.83;55.85
61898;BME280;47850;50.274;18.908;2023-02-23T13:21:34;97882.46;;;10.96;55.17
61898;BME280;47850;50.274;18.908;2023-02-23T13:24:24;97880.83;;;11.10;55.34
61898;BME280;47850;50.274;18.908;2023-02-23T13:29:46;97876.86;;;11.23;54.74
61898;BME280;47850;50.274;18.908;2023-02-23T13:32:24;97875.44;;;11.24;54.60
61898;BME280;47850;50.274;18.908;2023-02-23T13:38:15;97868.23;;;11.09;54.37
61898;BME280;47850;50.274;18.908;2023-02-23T13:51:19;97855.46;;;11.30;53.82
61898;BME280;47850;50.274;18.908;2023-02-23T13:56:28;97848.36;;;11.47;54.00
61898;BME280;47850;50.274;18.908;2023-02-23T13:59:00;97850.43;;;11.58;53.67
61898;BME280;47850;50.274;18.908;2023-02-23T14:01:35;97846.73;;;11.79;53.60
61898;BME280;47850;50.274;18.908;2023-02-23T14:04:06;97844.15;;;11.94;52.73
61898;BME280;47850;50.274;18.908;2023-02-23T14:06:49;97843.49;;;11.96;51.91
61898;BME280;47850;50.274;18.908;2023-02-23T14:09:22;97840.52;;;11.78;52.80
61898;BME280;47850;50.274;18.908;2023-02-23T14:12:16;97841.70;;;11.68;53.00
61898;BME280;47850;50.274;18.908;2023-02-23T14:14:49;97836.59;;;11.62;53.33
61898;BME280;47850;50.274;18.908;2023-02-23T14:23:13;97834.14;;;12.16;52.48
61898;BME280;47850;50.274;18.908;2023-02-23T14:28:33;97831.95;;;12.49;52.08
61898;BME280;47850;50.274;18.908;2023-02-23T14:41:45;97827.38;;;11.88;52.63
61898;BME280;47850;50.274;18.908;2023-02-23T14:46:52;97827.34;;;11.48;53.50
61898;BME280;47850;50.274;18.908;2023-02-23T14:49:25;97823.59;;;11.33;53.90
61898;BME280;47850;50.274;18.908;2023-02-23T14:51:56;97820.61;;;11.16;54.40
61898;BME280;47850;50.274;18.908;2023-02-23T14:54:31;97816.16;;;10.95;54.66
61898;BME280;47850;50.274;18.908;2023-02-23T14:57:02;97813.23;;;10.72;54.98
61898;BME280;47850;50.274;18.908;2023-02-23T14:59:39;97812.73;;;10.45;55.45
61898;BME280;47850;50.274;18.908;2023-02-23T15:02:20;97812.61;;;10.26;56.16
61898;BME280;47850;50.274;18.908;2023-02-23T15:04:48;97807.83;;;10.06;57.10
61898;BME280;47850;50.274;18.908;2023-02-23T15:09:58;97801.65;;;9.72;58.04
61898;BME280;47850;50.274;18.908;2023-02-23T15:12:29;97802.91;;;9.58;58.61
61898;BME280;47850;50.274;18.908;2023-02-23T15:15:00;97797.70;;;9.48;58.94
61898;BME280;47850;50.274;18.908;2023-02-23T15:17:31;97792.48;;;9.37;59.72
61898;BME280;47850;50.274;18.908;2023-02-23T15:20:03;97791.15;;;9.28;60.16
61898;BME280;47850;50.274;18.908;2023-02-23T15:22:34;97788.33;;;9.17;60.37
61898;BME280;47850;50.274;18.908;2023-02-23T15:25:24;97788.70;;;9.06;60.77
61898;BME280;47850;50.274;18.908;2023-02-23T15:27:52;97781.92;;;8.93;61.09
61898;BME280;47850;50.274;18.908;2023-02-23T15:30:30;97781.20;;;8.80;61.35
61898;BME280;47850;50.274;18.908;2023-02-23T15:33:10;97774.02;;;8.67;61.95
61898;BME280;47850;50.274;18.908;2023-02-23T15:35:46;97774.81;;;8.56;62.44
61898;BME280;47850;50.274;18.908;2023-02-23T15:38:22;97771.57;;;8.43;63.18